Terminal Aerodrome Forecast
Issued by NWS

Home | Current Version | Previous Version | Text Only | Print | Product List | Glossary Off
Versions: 1 2 3 4 5 6 7 8 9 10 11 12 13 14 15 16 17 18 19 20 21

888
FTUS43 KPAH 230524
TAFCGI
TAF
KCGI 230524Z 2306/2406 36018G28KT P6SM OVC015
     FM230800 34015G25KT P6SM BKN025
     FM231800 34012KT P6SM SCT030
     FM240000 34005KT P6SM SKC=

USA.gov is the U.S. government's official web portal to all federal, state and local government web resources and services.